createdAt,value
2023-04-19T00:02:22.976Z,10.37
2023-04-19T00:04:50.671Z,10.63
2023-04-19T00:07:18.662Z,10.33
2023-04-19T00:09:45.993Z,10.70
2023-04-19T00:12:13.328Z,10.77
2023-04-19T00:14:40.605Z,10.63
2023-04-19T00:17:07.922Z,10.67
2023-04-19T00:19:35.477Z,10.80
2023-04-19T00:22:02.942Z,11.53
2023-04-19T00:24:30.720Z,10.90
2023-04-19T00:26:59.435Z,10.80
2023-04-19T00:29:26.732Z,11.77
2023-04-19T00:31:54.410Z,11.70
2023-04-19T00:34:21.760Z,12.07
2023-04-19T00:36:49.056Z,11.27
2023-04-19T00:39:16.434Z,11.40
2023-04-19T00:41:44.203Z,11.23
2023-04-19T00:44:11.829Z,11.90
2023-04-19T00:46:39.538Z,11.13
2023-04-19T00:49:07.540Z,11.83
2023-04-19T00:51:35.288Z,12.30
2023-04-19T00:54:06.747Z,12.27
2023-04-19T00:56:35.077Z,11.53
2023-04-19T00:59:02.805Z,12.20
2023-04-19T01:01:31.419Z,12.27
2023-04-19T01:03:59.169Z,12.50
2023-04-19T01:06:30.116Z,12.53
2023-04-19T01:08:57.834Z,12.37
2023-04-19T01:11:25.591Z,12.50
2023-04-19T01:13:53.122Z,12.33
2023-04-19T01:16:20.656Z,13.03
2023-04-19T01:18:53.467Z,13.57
2023-04-19T01:21:23.032Z,13.63
2023-04-19T01:23:50.755Z,13.63
2023-04-19T01:26:18.769Z,13.03
2023-04-19T01:28:46.121Z,13.87
2023-04-19T01:31:13.444Z,13.37
2023-04-19T01:33:40.767Z,14.17
2023-04-19T01:36:10.464Z,13.83
2023-04-19T01:38:37.990Z,13.63
2023-04-19T01:41:05.607Z,13.87
2023-04-19T01:43:32.929Z,13.90
2023-04-19T01:46:00.257Z,14.87
2023-04-19T01:48:27.594Z,14.90
2023-04-19T01:50:54.869Z,15.30
2023-04-19T01:53:22.381Z,14.63
2023-04-19T01:55:50.710Z,15.47
2023-04-19T01:58:18.134Z,15.87
2023-04-19T02:00:46.259Z,15.17
2023-04-19T02:03:13.910Z,16.10
2023-04-19T02:05:43.197Z,16.67
2023-04-19T02:08:10.604Z,15.57
2023-04-19T02:10:37.961Z,16.70
2023-04-19T02:13:05.452Z,15.70
2023-04-19T02:15:32.966Z,16.93
2023-04-19T02:18:00.403Z,16.57
2023-04-19T02:20:27.805Z,16.40
2023-04-19T02:22:55.579Z,17.00
2023-04-19T02:25:23.034Z,17.33
2023-04-19T02:27:50.956Z,18.47
2023-04-19T02:30:19.092Z,17.40
2023-04-19T02:32:51.186Z,16.77
2023-04-19T02:35:18.526Z,17.33
2023-04-19T02:37:45.939Z,17.00
2023-04-19T02:40:13.318Z,18.37
2023-04-19T02:42:40.641Z,18.10
2023-04-19T02:45:08.752Z,16.90
2023-04-19T02:47:36.237Z,17.80
2023-04-19T02:50:03.818Z,18.23
2023-04-19T02:52:33.380Z,18.40
2023-04-19T02:55:00.707Z,18.20
2023-04-19T02:57:28.026Z,17.67
2023-04-19T02:59:55.584Z,18.37
2023-04-19T03:02:23.099Z,17.90
2023-04-19T03:04:50.594Z,18.63
2023-04-19T03:07:18.054Z,19.27
2023-04-19T03:09:46.207Z,18.07
2023-04-19T03:12:13.526Z,18.87
2023-04-19T03:14:42.599Z,18.97
2023-04-19T03:17:12.258Z,18.83
2023-04-19T03:19:39.754Z,18.47
2023-04-19T03:22:07.332Z,19.03
2023-04-19T03:24:37.134Z,19.30
2023-04-19T03:27:17.067Z,18.47
2023-04-19T03:29:49.051Z,19.23
2023-04-19T03:32:16.666Z,18.67
2023-04-19T03:34:44.119Z,19.50
2023-04-19T03:37:12.522Z,20.03
2023-04-19T03:39:39.892Z,20.27
2023-04-19T03:42:11.019Z,20.23
2023-04-19T03:44:57.234Z,20.60
2023-04-19T03:47:26.034Z,20.43
2023-04-19T03:49:57.471Z,20.00
2023-04-19T03:52:26.025Z,22.13
2023-04-19T03:54:53.761Z,20.10
2023-04-19T03:57:30.686Z,20.77
2023-04-19T04:00:00.606Z,20.17
2023-04-19T04:02:28.593Z,20.10
2023-04-19T04:04:56.281Z,22.27
2023-04-19T04:07:25.801Z,20.63
2023-04-19T04:09:53.730Z,22.07
2023-04-19T04:12:21.013Z,21.93
2023-04-19T04:14:49.268Z,21.67
2023-04-19T04:17:16.817Z,22.37
2023-04-19T04:19:44.333Z,20.63
2023-04-19T04:22:12.394Z,21.73
2023-04-19T04:24:43.154Z,22.87
2023-04-19T04:27:23.885Z,21.57
2023-04-19T04:29:54.613Z,22.23
2023-04-19T04:32:23.839Z,22.30
2023-04-19T04:34:56.465Z,22.13
2023-04-19T04:37:35.172Z,22.27
2023-04-19T04:40:06.795Z,21.60
2023-04-19T04:42:35.695Z,21.77
2023-04-19T04:45:03.423Z,22.87
2023-04-19T04:47:32.752Z,22.03
2023-04-19T04:50:03.592Z,22.13
2023-04-19T04:52:31.314Z,22.30
2023-04-19T04:55:07.380Z,22.20
2023-04-19T04:57:37.788Z,21.67
2023-04-19T05:00:07.800Z,22.70
2023-04-19T05:02:44.090Z,23.47
2023-04-19T05:05:12.276Z,22.33
2023-04-19T05:07:39.931Z,22.70
2023-04-19T05:10:08.367Z,21.73
2023-04-19T05:12:44.081Z,22.53
2023-04-19T05:15:14.560Z,21.00
2023-04-19T05:17:48.308Z,22.80
2023-04-19T05:20:15.843Z,22.37
2023-04-19T05:22:44.245Z,22.93
2023-04-19T05:25:12.357Z,22.67
2023-04-19T05:27:40.380Z,22.30
2023-04-19T05:30:08.699Z,22.10
2023-04-19T05:32:42.168Z,22.03
2023-04-19T05:35:12.158Z,22.17
2023-04-19T05:37:39.652Z,21.50
2023-04-19T05:40:10.159Z,21.63
2023-04-19T05:42:38.739Z,23.10
2023-04-19T05:45:07.268Z,22.53
2023-04-19T05:47:34.769Z,22.20
2023-04-19T05:50:18.561Z,21.87
2023-04-19T05:52:52.658Z,21.90
2023-04-19T05:55:20.358Z,22.50
2023-04-19T05:57:47.744Z,22.57
2023-04-19T06:00:16.537Z,22.23
2023-04-19T06:02:52.238Z,22.20
2023-04-19T06:05:22.443Z,22.80
2023-04-19T06:07:55.129Z,23.00
2023-04-19T06:10:36.803Z,22.20
2023-04-19T06:13:16.617Z,22.47
2023-04-19T06:15:44.123Z,23.30
2023-04-19T06:18:19.604Z,22.43
2023-04-19T06:20:47.971Z,22.90
2023-04-19T06:23:15.610Z,22.43
2023-04-19T06:25:42.907Z,24.47
2023-04-19T06:28:10.938Z,22.80
2023-04-19T06:30:38.213Z,21.77
2023-04-19T06:33:05.511Z,21.53
2023-04-19T06:35:33.296Z,22.97
2023-04-19T06:38:00.667Z,23.33
2023-04-19T06:40:29.648Z,22.43
2023-04-19T06:42:57.164Z,25.63
2023-04-19T06:45:24.526Z,23.27
2023-04-19T06:47:51.849Z,23.23
2023-04-19T06:50:19.328Z,22.13
2023-04-19T06:52:46.647Z,22.70
2023-04-19T06:55:14.136Z,21.83
2023-04-19T06:57:42.736Z,22.10
2023-04-19T07:00:11.562Z,22.97
2023-04-19T07:02:39.049Z,23.03
2023-04-19T07:05:08.009Z,22.37
2023-04-19T07:07:38.178Z,23.47
2023-04-19T07:10:06.114Z,23.10
2023-04-19T07:12:33.411Z,23.03
2023-04-19T07:15:00.782Z,24.93
2023-04-19T07:17:28.157Z,24.10
2023-04-19T07:19:56.206Z,23.40
2023-04-19T07:22:23.517Z,22.97
2023-04-19T07:24:52.298Z,23.13
2023-04-19T07:27:19.859Z,25.50
2023-04-19T07:29:47.189Z,24.37
2023-04-19T07:32:15.422Z,23.20
2023-04-19T07:34:43.608Z,22.37
2023-04-19T07:37:11.196Z,24.77
2023-04-19T07:39:39.292Z,24.40
2023-04-19T07:42:06.719Z,22.90
2023-04-19T07:44:34.189Z,24.63
2023-04-19T07:47:01.477Z,24.90
2023-04-19T07:49:33.850Z,24.80
2023-04-19T07:52:02.058Z,23.03
2023-04-19T07:54:30.392Z,23.23
2023-04-19T07:56:59.114Z,24.57
2023-04-19T07:59:26.662Z,21.93
2023-04-19T08:01:54.313Z,21.97
2023-04-19T08:04:23.245Z,21.27
2023-04-19T08:06:51.017Z,20.13
2023-04-19T08:09:18.575Z,22.10
2023-04-19T08:11:46.229Z,20.03
2023-04-19T08:14:28.319Z,18.90
2023-04-19T08:19:30.805Z,19.13
2023-04-19T08:21:58.067Z,18.30
2023-04-19T08:24:25.448Z,19.07
2023-04-19T08:26:54.572Z,17.77
2023-04-19T08:29:22.637Z,18.30
2023-04-19T08:31:50.006Z,19.00
2023-04-19T08:34:17.543Z,16.60
2023-04-19T08:36:55.967Z,15.97
2023-04-19T08:39:33.967Z,16.40
2023-04-19T08:42:18.265Z,14.83
2023-04-19T08:45:23.350Z,15.70
2023-04-19T08:47:59.391Z,14.17
2023-04-19T08:50:34.667Z,14.77
2023-04-19T08:53:23.752Z,14.80
2023-04-19T08:56:08.525Z,14.97
2023-04-19T09:01:19.848Z,15.00
2023-04-19T09:04:02.648Z,15.27
2023-04-19T09:06:39.277Z,15.43
2023-04-19T09:11:53.891Z,15.03
2023-04-19T09:14:22.667Z,14.73
2023-04-19T09:16:52.274Z,14.93
2023-04-19T09:19:24.649Z,14.63
2023-04-19T09:21:54.866Z,13.97
2023-04-19T09:27:12.587Z,12.63
2023-04-19T09:29:39.996Z,12.23
2023-04-19T09:32:07.444Z,12.23
2023-04-19T09:34:34.743Z,11.87
2023-04-19T09:37:21.436Z,11.27
2023-04-19T09:40:00.320Z,9.40
2023-04-19T09:43:13.006Z,10.77
2023-04-19T09:45:47.388Z,9.93
2023-04-19T09:48:14.661Z,9.67
2023-04-19T09:50:59.554Z,9.97
2023-04-19T09:53:30.477Z,7.27
2023-04-19T09:56:02.042Z,7.23
2023-04-19T10:01:13.491Z,6.77
2023-04-19T10:03:47.708Z,7.10
2023-04-19T10:06:39.998Z,6.20
2023-04-19T10:09:05.651Z,6.80
2023-04-19T10:11:41.509Z,7.60
2023-04-19T10:14:11.673Z,7.80
2023-04-19T10:16:39.489Z,6.60
2023-04-19T10:19:13.004Z,6.60
2023-04-19T10:21:42.306Z,6.30
2023-04-19T10:24:12.710Z,5.97
2023-04-19T10:27:04.963Z,6.23
2023-04-19T10:30:01.172Z,5.60
2023-04-19T10:32:40.027Z,6.63
2023-04-19T10:35:31.690Z,6.23
2023-04-19T10:38:05.042Z,5.90
2023-04-19T10:40:51.389Z,6.27
2023-04-19T10:43:20.058Z,6.40
2023-04-19T10:45:48.210Z,6.10
2023-04-19T10:48:32.313Z,6.33
2023-04-19T10:51:16.997Z,6.23
2023-04-19T10:53:47.224Z,5.60
2023-04-19T10:56:16.495Z,6.47
2023-04-19T10:59:13.585Z,6.90
2023-04-19T11:01:45.806Z,7.00
2023-04-19T11:04:18.271Z,7.30
2023-04-19T11:06:54.319Z,7.20
2023-04-19T11:09:39.506Z,7.67
2023-04-19T11:12:12.971Z,6.53
2023-04-19T11:14:49.368Z,6.57
2023-04-19T11:17:29.107Z,7.27
2023-04-19T11:20:08.684Z,7.33
2023-04-19T11:22:46.544Z,7.03
2023-04-19T11:25:21.895Z,6.53
2023-04-19T11:27:53.592Z,6.73
2023-04-19T11:30:28.181Z,6.87
2023-04-19T11:32:57.021Z,5.83
2023-04-19T11:35:26.967Z,6.03
2023-04-19T11:37:56.520Z,5.97
2023-04-19T11:40:28.236Z,5.87
2023-04-19T11:43:00.772Z,5.90
2023-04-19T11:45:34.787Z,5.23
2023-04-19T11:48:07.442Z,5.73
2023-04-19T11:50:36.672Z,5.20
2023-04-19T11:53:16.604Z,6.10
2023-04-19T11:55:54.793Z,7.40
2023-04-19T11:58:45.581Z,12.03
2023-04-19T12:01:19.452Z,8.33
2023-04-19T12:03:48.962Z,7.10
2023-04-19T12:06:31.865Z,6.20
2023-04-19T12:08:59.585Z,6.83
2023-04-19T12:11:46.223Z,6.17
2023-04-19T12:14:16.689Z,6.17
2023-04-19T12:16:45.065Z,6.37
2023-04-19T12:19:23.164Z,5.53
2023-04-19T12:21:50.578Z,5.70
2023-04-19T12:24:18.199Z,5.43
2023-04-19T12:26:57.191Z,6.23
2023-04-19T12:29:24.851Z,6.80
2023-04-19T12:31:52.166Z,8.97
2023-04-19T12:34:20.910Z,11.77
2023-04-19T12:36:48.379Z,8.80
2023-04-19T12:39:15.769Z,9.20
2023-04-19T12:41:43.210Z,12.33
2023-04-19T12:44:10.485Z,12.40
2023-04-19T12:46:38.072Z,9.77
2023-04-19T12:49:05.598Z,9.50
2023-04-19T12:51:33.188Z,9.07
2023-04-19T12:54:01.049Z,8.20
2023-04-19T12:56:28.381Z,8.10
2023-04-19T12:58:55.832Z,7.87
2023-04-19T13:01:23.620Z,7.43
2023-04-19T13:03:51.214Z,7.33
2023-04-19T13:06:18.794Z,7.23
2023-04-19T13:08:47.827Z,7.53
2023-04-19T13:11:18.060Z,7.17
2023-04-19T13:13:45.616Z,7.60
2023-04-19T13:16:12.958Z,6.97
2023-04-19T13:18:40.233Z,6.47
2023-04-19T13:21:08.485Z,6.60
2023-04-19T13:23:36.259Z,6.37
2023-04-19T13:26:03.767Z,10.23
2023-04-19T13:28:31.461Z,7.33
2023-04-19T13:30:58.807Z,6.33
2023-04-19T13:33:26.903Z,6.53
2023-04-19T13:35:54.473Z,7.17
2023-04-19T13:38:22.609Z,6.70
2023-04-19T13:40:49.895Z,6.17
2023-04-19T13:43:17.305Z,5.50
2023-04-19T13:45:44.896Z,5.87
2023-04-19T13:48:12.624Z,5.80
2023-04-19T13:50:39.936Z,6.00
2023-04-19T13:53:07.558Z,5.87
2023-04-19T13:55:34.882Z,6.00
2023-04-19T13:58:02.500Z,5.37
2023-04-19T14:00:29.845Z,6.10
2023-04-19T14:02:57.413Z,5.90
2023-04-19T14:05:24.979Z,7.60
2023-04-19T14:07:52.563Z,5.90
2023-04-19T14:10:19.916Z,8.63
2023-04-19T14:12:47.823Z,5.63
2023-04-19T14:15:15.651Z,12.33
2023-04-19T14:17:43.153Z,6.27
2023-04-19T14:20:11.241Z,8.90
2023-04-19T14:22:39.380Z,9.93
2023-04-19T14:25:07.225Z,10.23
2023-04-19T14:27:34.719Z,7.57
2023-04-19T14:30:02.775Z,5.53
2023-04-19T14:32:30.626Z,5.63
2023-04-19T14:34:58.050Z,4.93
2023-04-19T14:37:25.609Z,4.47
2023-04-19T14:39:53.286Z,4.90
2023-04-19T14:42:22.916Z,4.07
2023-04-19T14:44:52.115Z,4.43
2023-04-19T14:47:20.150Z,4.70
2023-04-19T14:49:47.428Z,4.17
2023-04-19T14:52:14.873Z,4.43
2023-04-19T14:54:42.458Z,4.53
2023-04-19T14:57:09.820Z,3.93
2023-04-19T14:59:37.116Z,4.20
2023-04-19T15:02:04.726Z,4.60
2023-04-19T15:04:36.709Z,4.93
2023-04-19T15:07:07.357Z,4.53
2023-04-19T15:09:35.024Z,4.00
2023-04-19T15:12:02.539Z,4.63
2023-04-19T15:14:30.208Z,5.77
2023-04-19T15:16:57.516Z,4.57
2023-04-19T15:19:25.002Z,4.33
2023-04-19T15:21:52.459Z,5.20
2023-04-19T15:24:19.778Z,4.60
2023-04-19T15:26:47.211Z,4.83
2023-04-19T15:29:14.920Z,4.10
2023-04-19T15:31:42.447Z,4.30
2023-04-19T15:34:09.714Z,4.63
2023-04-19T15:36:37.134Z,4.80
2023-04-19T15:39:04.543Z,4.50
2023-04-19T15:41:32.103Z,4.80
2023-04-19T15:43:59.393Z,4.53
2023-04-19T15:46:27.275Z,4.23
2023-04-19T15:48:54.865Z,3.87
2023-04-19T15:51:22.278Z,4.30
2023-04-19T15:53:49.654Z,4.40
2023-04-19T15:56:16.938Z,4.60
2023-04-19T15:58:44.439Z,4.07
2023-04-19T16:01:13.055Z,4.67
2023-04-19T16:03:41.312Z,4.17
2023-04-19T16:06:09.558Z,3.93
2023-04-19T16:08:37.048Z,5.23
2023-04-19T16:11:05.793Z,4.87
2023-04-19T16:13:33.237Z,4.03
2023-04-19T16:16:01.359Z,4.23
2023-04-19T16:18:28.847Z,3.93
2023-04-19T16:20:56.321Z,3.70
2023-04-19T16:23:24.586Z,3.87
2023-04-19T16:25:53.371Z,5.40
2023-04-19T16:28:21.602Z,6.07
2023-04-19T16:30:48.942Z,6.93
2023-04-19T16:33:16.450Z,5.13
2023-04-19T16:35:44.803Z,7.37
2023-04-19T16:38:12.317Z,5.17
2023-04-19T16:40:39.571Z,3.70
2023-04-19T16:43:06.890Z,4.80
2023-04-19T16:45:34.328Z,4.60
2023-04-19T16:48:01.884Z,4.40
2023-04-19T16:50:29.214Z,3.60
2023-04-19T16:52:56.621Z,3.50
2023-04-19T16:55:24.079Z,3.43
2023-04-19T16:57:53.629Z,3.70
2023-04-19T17:00:22.067Z,3.47
2023-04-19T17:02:49.733Z,3.70
2023-04-19T17:05:17.151Z,3.40
2023-04-19T17:07:44.441Z,3.33
2023-04-19T17:10:12.574Z,3.40
2023-04-19T17:12:40.093Z,3.37
2023-04-19T17:15:07.728Z,3.27
2023-04-19T17:17:35.129Z,3.53
2023-04-19T17:20:03.927Z,3.90
2023-04-19T17:22:31.563Z,3.83
2023-04-19T17:24:59.012Z,3.13
2023-04-19T17:27:26.330Z,3.60
2023-04-19T17:29:54.024Z,3.80
2023-04-19T17:32:21.751Z,4.47
2023-04-19T17:34:49.075Z,4.13
2023-04-19T17:37:16.499Z,4.13
2023-04-19T17:39:43.982Z,4.27
2023-04-19T17:42:11.277Z,4.90
2023-04-19T17:44:38.700Z,4.37
2023-04-19T17:47:06.456Z,4.70
2023-04-19T17:49:33.920Z,4.90
2023-04-19T17:52:01.192Z,5.03
2023-04-19T17:54:28.526Z,4.50
2023-04-19T17:56:55.837Z,5.33
2023-04-19T17:59:23.253Z,5.20
2023-04-19T18:01:50.639Z,5.00
2023-04-19T18:04:20.211Z,5.30
2023-04-19T18:06:47.808Z,5.10
2023-04-19T18:09:16.703Z,5.03
2023-04-19T18:11:44.296Z,5.50
2023-04-19T18:14:11.656Z,4.80
2023-04-19T18:16:39.120Z,5.27
2023-04-19T18:19:06.678Z,5.37
2023-04-19T18:21:34.423Z,5.23
2023-04-19T18:24:02.132Z,4.73
2023-04-19T18:26:42.549Z,4.97
2023-04-19T18:29:10.863Z,5.63
2023-04-19T18:31:38.403Z,5.73
2023-04-19T18:34:05.876Z,5.90
2023-04-19T18:36:33.594Z,5.57
2023-04-19T18:39:00.908Z,6.10
2023-04-19T18:41:28.142Z,6.60
2023-04-19T18:44:24.851Z,6.60
2023-04-19T18:46:43.035Z,6.70
2023-04-19T18:49:10.523Z,6.90
2023-04-19T18:51:38.736Z,5.83
2023-04-19T18:54:06.114Z,7.10
2023-04-19T18:57:10.949Z,6.93
2023-04-19T18:59:20.846Z,6.43
2023-04-19T19:01:49.384Z,6.27
2023-04-19T19:04:43.013Z,6.80
2023-04-19T19:07:23.061Z,6.57
2023-04-19T19:09:56.665Z,6.53
2023-04-19T19:12:24.740Z,7.40
2023-04-19T19:14:52.773Z,7.10
2023-04-19T19:17:20.208Z,7.13
2023-04-19T19:19:47.970Z,7.10
2023-04-19T19:22:26.337Z,6.33
2023-04-19T19:24:55.691Z,6.83
2023-04-19T19:27:23.272Z,7.03
2023-04-19T19:29:50.611Z,6.63
2023-04-19T19:32:19.277Z,6.87
2023-04-19T19:34:55.583Z,7.33
2023-04-19T19:37:26.930Z,6.90
2023-04-19T19:39:56.196Z,6.73
2023-04-19T19:42:24.707Z,6.57
2023-04-19T19:44:55.922Z,6.33
2023-04-19T19:47:25.016Z,6.97
2023-04-19T19:50:43.700Z,6.43
2023-04-19T19:52:42.246Z,6.47
2023-04-19T19:55:12.396Z,6.77
2023-04-19T20:00:36.825Z,7.50
2023-04-19T20:02:59.804Z,7.50
2023-04-19T20:05:28.628Z,7.20
2023-04-19T20:08:08.665Z,7.13
2023-04-19T20:10:38.833Z,7.17
2023-04-19T20:13:06.738Z,6.97
2023-04-19T20:15:35.829Z,7.37
2023-04-19T20:18:03.774Z,6.90
2023-04-19T20:20:31.185Z,7.73
2023-04-19T20:22:58.483Z,7.57
2023-04-19T20:25:26.009Z,8.37
2023-04-19T20:27:54.211Z,7.93
2023-04-19T20:30:21.520Z,7.33
2023-04-19T20:32:50.300Z,7.60
2023-04-19T20:35:18.185Z,6.60
2023-04-19T20:37:47.094Z,7.63
2023-04-19T20:40:16.165Z,6.57
2023-04-19T20:42:44.814Z,6.70
2023-04-19T20:45:12.859Z,6.90
2023-04-19T20:47:41.209Z,6.40
2023-04-19T20:50:09.557Z,5.90
2023-04-19T20:52:37.251Z,6.57
2023-04-19T20:55:04.887Z,6.37
2023-04-19T20:57:32.226Z,6.27
2023-04-19T20:59:59.951Z,6.40
2023-04-19T21:02:28.267Z,6.33
2023-04-19T21:04:55.925Z,6.07
2023-04-19T21:07:23.355Z,6.43
2023-04-19T21:09:50.642Z,6.63
2023-04-19T21:12:18.028Z,6.27
2023-04-19T21:14:49.247Z,6.37
2023-04-19T21:17:16.963Z,6.10
2023-04-19T21:19:44.581Z,5.50
2023-04-19T21:22:12.029Z,5.90
2023-04-19T21:24:39.415Z,6.00
2023-04-19T21:27:06.688Z,5.53
2023-04-19T21:29:34.113Z,5.60
2023-04-19T21:32:01.649Z,5.67
2023-04-19T21:34:29.189Z,6.17
2023-04-19T21:36:56.889Z,5.80
2023-04-19T21:39:24.375Z,5.90
2023-04-19T21:41:51.690Z,5.40
2023-04-19T21:44:19.286Z,5.30
2023-04-19T21:46:46.648Z,5.73
2023-04-19T21:49:13.960Z,5.93
2023-04-19T21:51:41.273Z,5.23
2023-04-19T21:54:08.750Z,5.63
2023-04-19T21:56:37.677Z,5.80
2023-04-19T21:59:05.043Z,5.53
2023-04-19T22:01:32.702Z,5.57
2023-04-19T22:04:00.320Z,6.00
2023-04-19T22:06:27.806Z,6.03
2023-04-19T22:08:56.664Z,6.37
2023-04-19T22:11:24.067Z,6.23
2023-04-19T22:13:52.151Z,6.17
2023-04-19T22:16:19.449Z,6.80
2023-04-19T22:18:46.952Z,7.07
2023-04-19T22:21:15.038Z,6.70
2023-04-19T22:23:42.644Z,6.17
2023-04-19T22:26:10.109Z,6.77
2023-04-19T22:28:37.480Z,6.87
2023-04-19T22:31:04.764Z,6.87
2023-04-19T22:33:32.029Z,6.20
2023-04-19T22:35:59.332Z,6.47
2023-04-19T22:38:27.118Z,6.40
2023-04-19T22:40:54.423Z,6.40
2023-04-19T22:43:22.168Z,6.73
2023-04-19T22:45:49.486Z,6.63
2023-04-19T22:48:17.072Z,6.73
2023-04-19T22:50:45.345Z,7.10
2023-04-19T22:53:13.522Z,6.80
2023-04-19T22:55:41.109Z,6.27
2023-04-19T22:58:09.937Z,6.40
2023-04-19T23:00:37.911Z,6.97
2023-04-19T23:03:05.532Z,7.17
2023-04-19T23:05:33.961Z,7.30
2023-04-19T23:08:04.100Z,7.33
2023-04-19T23:10:31.802Z,7.10
2023-04-19T23:12:59.297Z,7.13
2023-04-19T23:15:28.676Z,7.00
2023-04-19T23:17:56.660Z,7.63
2023-04-19T23:20:24.169Z,7.67
2023-04-19T23:22:51.721Z,7.83
2023-04-19T23:25:18.969Z,8.07
2023-04-19T23:27:46.570Z,8.33
2023-04-19T23:30:14.004Z,8.23
2023-04-19T23:32:41.435Z,7.63
2023-04-19T23:35:09.355Z,8.50
2023-04-19T23:37:37.733Z,8.07
2023-04-19T23:40:06.308Z,8.17
2023-04-19T23:42:33.878Z,7.97
2023-04-19T23:45:01.214Z,8.73
2023-04-19T23:47:28.598Z,8.90
2023-04-19T23:49:55.994Z,8.60
2023-04-19T23:52:23.351Z,7.87
2023-04-19T23:54:51.131Z,8.17
2023-04-19T23:57:19.300Z,8.73
2023-04-19T23:59:46.579Z,8.37
